CheckWX is a tool to help pilots better visualize weather data.  It is not intended as a substitute for an official pre-flight weather briefing.

12:24:34 UTC

KILG TAF
New Castle Airport
Wilmington, Delaware, USA
KILG 041721Z 0418/0518 05008KT P6SM SCT025 BKN035 TEMPO 0418/0420 BKN025 FM042000 VRB05KT P6SM SCT025 BKN040 FM050300 19005KT P6SM SCT025 BKN035 FM051400 25006KT P6SM BKN045

Apr-4@
18:00 UTC

Apr-4 @ 18:00 UTC

Apr-4@
20:00 UTC

Apr-4 @ 20:00 UTC

TAF KILG 041721Z 0418/0518 05008KT P6SM SCT025 BKN035

Expired

Wind
  • 050° at 8 KTS
Cloud Levels
  • Scattered at 2,500' AGL
  • Broken at 3,500' AGL

Apr-4@
18:00 UTC

Apr-4 @ 18:00 UTC

Apr-4@
20:00 UTC

Apr-4 @ 20:00 UTC

TEMPO 0418/0420 BKN025

Expired

Cloud Levels
  • Broken at 2,500' AGL

Apr-4@
20:00 UTC

Apr-4 @ 20:00 UTC

Apr-5@
03:00 UTC

Apr-5 @ 03:00 UTC

FM042000 VRB05KT P6SM SCT025 BKN040

Expired

Wind
  • Variable at 5 KTS
Cloud Levels
  • Scattered at 2,500' AGL
  • Broken at 4,000' AGL

Apr-5@
03:00 UTC

Apr-5 @ 03:00 UTC

Apr-5@
14:00 UTC

Apr-5 @ 14:00 UTC

FM050300 19005KT P6SM SCT025 BKN035

From

From Standard forecast or significant change

Wind
  • 190° at 5 KTS
Cloud Levels
  • Scattered at 2,500' AGL
  • Broken at 3,500' AGL

Apr-5@
14:00 UTC

Apr-5 @ 14:00 UTC

Apr-5@
18:00 UTC

Apr-5 @ 18:00 UTC

FM051400 25006KT P6SM BKN045

From

From Standard forecast or significant change

Wind
  • 250° at 6 KTS
Cloud Levels
  • Broken at 4,500' AGL